Time;durP1;ratioP1;P1;durP2;ratioP2;P2;SDS_P1;SDS_P2;PMS_P1;PMS_P2;Temp;Humidity;BMP_temperature;BMP_pressure;BME280_temperature;BME280_humidity;BME280_pressure;Samples;Min_cycle;Max_cycle;Signal;HPM_P1;HPM_P2
2022/06/30 00:00:47;;;;;;;5.60;4.83;;;;;;;20.63;77.48;97912.48;1784340;80;21692;-60
2022/06/30 00:03:13;;;;;;;5.42;4.65;;;;;;;20.63;77.47;97916.56;1784546;80;20863;-60
2022/06/30 00:05:40;;;;;;;5.08;4.60;;;;;;;20.61;77.45;97914.18;1784361;80;20954;-61
2022/06/30 00:08:07;;;;;;;8.35;4.53;;;;;;;20.63;77.31;97911.13;1784208;80;20958;-61
2022/06/30 00:10:34;;;;;;;7.08;4.50;;;;;;;20.64;77.22;97904.52;1784440;80;21416;-62
2022/06/30 00:13:01;;;;;;;6.40;4.60;;;;;;;20.67;77.26;97907.89;1784322;80;21034;-61
2022/06/30 00:15:27;;;;;;;5.00;4.53;;;;;;;20.65;77.36;97908.83;1782285;79;20970;-61
2022/06/30 00:17:54;;;;;;;6.33;4.75;;;;;;;20.59;77.55;97904.80;1773204;81;20829;-60
2022/06/30 00:20:20;;;;;;;5.92;4.62;;;;;;;20.53;77.75;97908.95;1773208;81;20871;-60
2022/06/30 00:22:47;;;;;;;5.67;4.47;;;;;;;20.48;77.94;97903.80;1773245;81;20887;-60
2022/06/30 00:25:13;;;;;;;6.45;4.80;;;;;;;20.41;78.09;97899.79;1773328;81;21115;-60
2022/06/30 00:27:40;;;;;;;9.30;4.80;;;;;;;20.38;78.37;97903.21;1820412;78;20915;-59
2022/06/30 00:30:09;;;;;;;6.08;4.80;;;;;;;20.40;78.55;97909.64;1820474;78;21521;-61
2022/06/30 00:32:37;;;;;;;7.70;5.12;;;;;;;20.40;78.63;97903.64;1820404;78;20892;-61
2022/06/30 00:35:04;;;;;;;6.47;4.42;;;;;;;20.43;78.74;97906.22;1820514;78;20844;-61
2022/06/30 00:37:31;;;;;;;7.03;4.75;;;;;;;20.39;78.84;97902.65;1820352;78;21808;-60
2022/06/30 00:39:57;;;;;;;5.37;4.40;;;;;;;20.38;78.98;97903.78;1820525;78;21473;-60
2022/06/30 00:42:24;;;;;;;5.83;4.83;;;;;;;20.39;79.06;97899.93;1820559;78;21360;-60
2022/06/30 00:44:50;;;;;;;5.25;4.75;;;;;;;20.38;79.04;97897.77;1820462;78;20860;-61
2022/06/30 00:47:17;;;;;;;5.35;4.62;;;;;;;20.34;79.03;97896.92;1820385;78;20931;-61
2022/06/30 00:49:43;;;;;;;5.90;4.25;;;;;;;20.33;79.18;97895.33;1820472;78;21218;-62
2022/06/30 00:52:10;;;;;;;4.67;4.25;;;;;;;20.34;79.33;97892.05;1786181;78;20958;-61
2022/06/30 00:54:37;;;;;;;6.92;4.53;;;;;;;20.35;79.43;97896.32;1820533;78;21483;-62
2022/06/30 00:57:04;;;;;;;7.45;4.67;;;;;;;20.30;79.46;97895.27;1820315;78;20892;-61
2022/06/30 00:59:31;;;;;;;6.35;4.37;;;;;;;20.27;79.57;97901.41;1820383;78;20848;-62
2022/06/30 01:01:59;;;;;;;8.35;5.20;;;;;;;20.23;79.48;97899.19;1820348;78;21221;-61
2022/06/30 01:04:25;;;;;;;5.72;4.58;;;;;;;20.17;79.47;97897.28;1820393;78;21012;-60
2022/06/30 01:06:52;;;;;;;7.60;4.85;;;;;;;20.13;79.58;97896.98;1820336;78;20840;-61
2022/06/30 01:14:50;;;;;;;5.28;4.60;;;;;;;19.99;80.08;97902.89;1820680;78;21447;-60
2022/06/30 01:17:16;;;;;;;5.70;4.70;;;;;;;19.99;80.19;97904.25;1818018;78;21009;-60
2022/06/30 01:19:54;;;;;;;8.55;4.95;;;;;;;19.98;80.29;97898.58;1817466;79;20860;-59
2022/06/30 01:22:21;;;;;;;7.35;6.17;;;;;;;19.95;80.40;97897.16;1817177;79;20971;-61
2022/06/30 01:24:47;;;;;;;8.08;6.00;;;;;;;19.94;80.60;97897.72;1817579;79;21454;-62
2022/06/30 01:27:13;;;;;;;6.58;5.58;;;;;;;19.95;80.84;97895.20;1817451;79;21109;-59
2022/06/30 01:29:40;;;;;;;7.67;5.62;;;;;;;19.95;80.96;97894.44;1817400;79;20939;-58
2022/06/30 01:32:08;;;;;;;8.98;5.72;;;;;;;19.95;81.14;97896.56;1817437;79;20985;-59
2022/06/30 01:34:34;;;;;;;9.68;6.15;;;;;;;19.96;81.14;97896.80;1817543;79;21458;-59
2022/06/30 01:37:01;;;;;;;8.33;6.03;;;;;;;19.98;81.14;97895.86;1817440;79;20900;-58
2022/06/30 01:39:27;;;;;;;6.72;6.05;;;;;;;19.99;81.11;97905.61;1817550;79;21101;-59
2022/06/30 01:41:54;;;;;;;9.00;5.92;;;;;;;20.00;81.19;97896.30;1817485;79;20907;-60
2022/06/30 01:44:20;;;;;;;6.60;5.97;;;;;;;20.05;81.14;97896.03;1817520;79;21462;-59
2022/06/30 01:46:48;;;;;;;8.55;6.15;;;;;;;20.08;81.08;97893.97;1817425;79;20993;-58
2022/06/30 01:49:15;;;;;;;9.40;6.35;;;;;;;20.10;80.93;97893.04;1817394;78;21418;-62
2022/06/30 01:51:42;;;;;;;6.50;5.92;;;;;;;20.14;80.83;97896.62;1817439;79;21110;-62
2022/06/30 01:54:09;;;;;;;7.67;5.78;;;;;;;20.16;80.79;97894.33;1817477;79;20907;-62
2022/06/30 01:56:36;;;;;;;11.68;6.00;;;;;;;20.17;80.76;97893.77;1817529;79;20895;-61
2022/06/30 01:59:03;;;;;;;11.05;6.00;;;;;;;20.19;80.85;97894.19;1817387;79;20919;-60
2022/06/30 02:01:30;;;;;;;8.63;5.40;;;;;;;20.18;80.90;97892.06;1817790;79;21486;-62
2022/06/30 02:04:46;;;;;;;9.58;5.80;;;;;;;20.14;80.90;97881.66;1817443;79;21103;-61
2022/06/30 02:06:26;;;;;;;10.68;6.28;;;;;;;20.11;80.81;97888.39;1816036;79;21042;-61
2022/06/30 02:08:53;;;;;;;10.38;6.17;;;;;;;20.06;80.74;97890.02;1817542;79;20864;-62
2022/06/30 02:11:19;;;;;;;6.50;5.85;;;;;;;19.97;80.73;97890.79;1817413;79;20927;-60
2022/06/30 02:13:47;;;;;;;6.80;5.60;;;;;;;19.91;80.89;97886.19;1817756;79;21438;-61
2022/06/30 02:16:13;;;;;;;10.00;5.87;;;;;;;19.87;81.01;97885.33;1817452;79;21221;-62
2022/06/30 02:18:40;;;;;;;9.05;6.30;;;;;;;19.85;81.17;97887.61;1817340;79;20907;-60
2022/06/30 02:21:07;;;;;;;7.37;5.87;;;;;;;19.80;81.18;97885.16;1817530;79;20868;-61
2022/06/30 02:23:34;;;;;;;6.55;5.50;;;;;;;19.76;81.34;97889.70;1817628;79;21363;-63
2022/06/30 02:26:01;;;;;;;6.22;5.50;;;;;;;19.75;81.61;97899.80;1817546;79;20848;-61
2022/06/30 02:28:28;;;;;;;8.05;5.50;;;;;;;19.77;81.82;97899.44;1817434;79;21230;-60
2022/06/30 02:30:54;;;;;;;7.15;5.40;;;;;;;19.77;81.93;97904.87;1817462;79;20872;-61
2022/06/30 02:33:20;;;;;;;16.17;6.17;;;;;;;19.75;82.15;97892.22;1817416;79;20828;-61
2022/06/30 02:35:47;;;;;;;18.30;5.90;;;;;;;19.77;82.38;97893.44;1784108;80;20986;-62
2022/06/30 02:38:14;;;;;;;8.25;5.70;;;;;;;19.86;82.42;97891.09;1784237;80;20944;-60
2022/06/30 02:40:40;;;;;;;9.88;5.60;;;;;;;19.95;82.22;97895.20;1784125;80;21112;-60
2022/06/30 02:43:07;;;;;;;6.30;5.70;;;;;;;20.07;82.08;97895.09;1784191;80;20970;-62
2022/06/30 02:45:34;;;;;;;6.58;5.22;;;;;;;20.19;81.59;97896.34;1784266;80;20825;-60
2022/06/30 02:48:02;;;;;;;7.03;5.65;;;;;;;20.29;81.27;97894.47;1784118;80;20876;-61
2022/06/30 02:50:29;;;;;;;5.90;5.33;;;;;;;20.41;80.85;97894.35;1784278;80;20970;-59
2022/06/30 02:52:56;;;;;;;7.55;5.42;;;;;;;20.52;80.54;97896.48;1784140;80;21134;-60
2022/06/30 02:55:23;;;;;;;7.33;5.42;;;;;;;20.61;80.37;97899.81;1784428;80;21403;-61
2022/06/30 02:57:50;;;;;;;7.53;5.90;;;;;;;20.61;80.05;97895.13;1784293;80;20976;-60
2022/06/30 03:00:17;;;;;;;6.87;5.72;;;;;;;20.63;79.88;97896.95;1784356;80;20989;-61
2022/06/30 03:02:44;;;;;;;8.35;5.10;;;;;;;20.67;79.63;97893.72;1784328;80;20856;-61
2022/06/30 03:05:10;;;;;;;6.47;5.80;;;;;;;20.70;79.51;97888.14;1784370;80;21238;-61
2022/06/30 03:07:38;;;;;;;7.75;5.53;;;;;;;20.66;79.55;97888.62;1784161;80;20864;-61
2022/06/30 03:10:06;;;;;;;7.55;5.62;;;;;;;20.64;79.54;97884.91;1784367;80;20832;-61
2022/06/30 03:12:38;;;;;;;6.75;5.90;;;;;;;20.62;79.54;97890.48;1784271;80;20911;-61
2022/06/30 03:15:07;;;;;;;9.85;6.35;;;;;;;20.56;79.63;97891.92;1784301;80;20920;-60
2022/06/30 03:17:34;;;;;;;11.38;6.10;;;;;;;20.53;79.72;97892.06;1766359;80;21063;-60
2022/06/30 03:20:01;;;;;;;7.92;6.10;;;;;;;20.52;79.70;97885.60;1790160;80;20859;-61
2022/06/30 03:22:27;;;;;;;8.18;5.83;;;;;;;20.53;79.90;97887.19;1790316;80;21540;-62
2022/06/30 03:24:54;;;;;;;8.33;6.15;;;;;;;20.54;80.01;97888.19;1790089;80;20939;-61
2022/06/30 03:27:20;;;;;;;6.50;5.90;;;;;;;20.59;80.16;97889.83;1790111;80;20999;-61
2022/06/30 03:29:47;;;;;;;7.45;5.78;;;;;;;20.65;80.11;97891.94;1790178;80;21019;-59
2022/06/30 03:32:13;;;;;;;10.15;6.25;;;;;;;20.66;79.99;97894.85;1790052;80;20828;-61
2022/06/30 03:34:40;;;;;;;6.87;6.10;;;;;;;20.66;80.02;97888.62;1790213;80;20906;-61
2022/06/30 03:37:06;;;;;;;6.83;5.97;;;;;;;20.66;80.03;97894.85;1790163;80;20922;-62
2022/06/30 03:39:33;;;;;;;8.98;5.90;;;;;;;20.67;80.24;97897.01;1790340;80;21377;-60
2022/06/30 03:42:05;;;;;;;9.58;6.60;;;;;;;20.71;80.34;97901.94;1790119;80;21135;-60
2022/06/30 03:44:33;;;;;;;6.37;5.78;;;;;;;20.77;80.42;97904.05;1790143;80;20907;-62
2022/06/30 03:46:59;;;;;;;10.53;6.35;;;;;;;20.82;80.49;97901.60;1790098;80;20958;-62
2022/06/30 03:49:27;;;;;;;9.78;7.05;;;;;;;20.86;80.54;97899.73;1790065;80;20918;-61
2022/06/30 03:51:54;;;;;;;9.53;6.87;;;;;;;20.93;80.72;97902.59;1790127;80;20827;-62
2022/06/30 03:54:21;;;;;;;14.13;7.65;;;;;;;21.02;80.68;97900.43;1790198;80;21104;-61
2022/06/30 03:56:47;;;;;;;9.38;6.55;;;;;;;21.14;80.47;97900.30;1790038;80;20879;-61
2022/06/30 03:59:14;;;;;;;8.48;6.92;;;;;;;21.25;80.27;97904.00;1790141;80;20867;-62
2022/06/30 04:01:41;;;;;;;8.83;7.10;;;;;;;21.37;79.92;97902.47;1790081;80;20910;-59
2022/06/30 04:04:07;;;;;;;9.88;7.55;;;;;;;21.48;79.51;97902.08;1790109;80;20982;-63
2022/06/30 04:06:34;;;;;;;10.95;7.47;;;;;;;21.58;79.28;97906.13;1790062;80;21236;-61
2022/06/30 04:09:00;;;;;;;12.55;6.92;;;;;;;21.67;79.24;97908.83;1790096;80;21414;-61
2022/06/30 04:11:27;;;;;;;11.22;7.00;;;;;;;21.74;79.11;97900.77;1790068;80;20945;-60
2022/06/30 04:13:54;;;;;;;7.90;7.10;;;;;;;21.81;79.01;97902.24;1790168;80;20883;-60
2022/06/30 04:16:21;;;;;;;10.58;7.25;;;;;;;21.91;78.89;97910.98;1789847;79;20879;-60
2022/06/30 04:18:47;;;;;;;12.93;6.97;;;;;;;21.99;78.73;97909.95;1784330;80;21485;-62
2022/06/30 04:21:16;;;;;;;12.28;7.17;;;;;;;22.06;78.48;97919.03;1784289;80;20864;-63
2022/06/30 04:23:44;;;;;;;7.70;6.90;;;;;;;22.11;78.35;97916.56;1784356;80;20871;-62
2022/06/30 04:26:10;;;;;;;10.80;6.83;;;;;;;22.19;78.22;97918.23;1784188;80;20951;-61
2022/06/30 04:28:38;;;;;;;10.13;6.85;;;;;;;22.25;78.18;97918.14;1784326;80;20982;-62
2022/06/30 04:33:50;;;;;;;10.95;6.85;;;;;;;22.37;77.92;97917.36;1784287;80;20962;-62
2022/06/30 04:36:16;;;;;;;7.83;6.87;;;;;;;22.45;77.63;97926.41;1784200;80;21007;-61
2022/06/30 04:38:44;;;;;;;14.10;7.67;;;;;;;22.53;77.58;97924.56;1784296;80;20840;-63
2022/06/30 04:41:26;;;;;;;8.88;6.90;;;;;;;22.57;77.47;97928.12;1784249;80;20978;-60
2022/06/30 04:43:57;;;;;;;8.30;6.92;;;;;;;22.64;77.37;97931.77;1784574;80;21378;-60
2022/06/30 04:46:24;;;;;;;11.05;7.03;;;;;;;22.70;77.49;97934.39;1784188;80;20870;-61
2022/06/30 04:48:51;;;;;;;7.72;6.55;;;;;;;22.74;77.63;97931.12;1784498;80;21358;-60
2022/06/30 04:51:18;;;;;;;12.55;6.75;;;;;;;22.80;77.65;97935.69;1784191;80;20958;-60
2022/06/30 04:53:44;;;;;;;9.75;6.53;;;;;;;22.86;77.48;97937.72;1784232;80;20879;-60
2022/06/30 04:56:11;;;;;;;12.73;7.03;;;;;;;22.91;77.35;97937.39;1784214;80;21233;-60
2022/06/30 04:58:38;;;;;;;11.75;7.10;;;;;;;22.96;77.30;97932.94;1784112;80;20913;-61
2022/06/30 05:01:05;;;;;;;10.95;7.05;;;;;;;23.02;77.28;97942.39;1784221;80;20828;-62
2022/06/30 05:03:32;;;;;;;9.93;6.70;;;;;;;23.10;77.19;97941.30;1784300;80;20891;-61
2022/06/30 05:05:58;;;;;;;8.63;6.80;;;;;;;23.18;77.19;97939.44;1784231;80;20975;-60
2022/06/30 05:08:26;;;;;;;8.75;6.75;;;;;;;23.26;77.03;97943.04;1784267;80;21239;-62
2022/06/30 05:10:54;;;;;;;12.23;6.97;;;;;;;23.35;76.79;97938.09;1784209;80;20844;-59
2022/06/30 05:13:20;;;;;;;11.73;6.92;;;;;;;23.41;76.66;97939.34;1784244;80;20871;-60
2022/06/30 05:15:47;;;;;;;9.15;6.90;;;;;;;23.47;76.31;97946.81;1788942;77;21502;-63
2022/06/30 05:18:13;;;;;;;7.92;6.37;;;;;;;23.52;76.20;97948.42;1802439;79;20864;-61
2022/06/30 05:20:41;;;;;;;9.63;6.25;;;;;;;23.57;76.01;97946.14;1816314;79;21175;-59
2022/06/30 05:23:10;;;;;;;14.30;6.62;;;;;;;23.69;75.86;97942.34;1816322;78;20903;-59
2022/06/30 05:28:22;;;;;;;12.15;6.72;;;;;;;23.76;75.32;97947.88;1816408;79;20871;-61
2022/06/30 05:30:49;;;;;;;12.73;6.53;;;;;;;23.80;75.03;97945.38;1816452;79;20922;-62
2022/06/30 05:33:19;;;;;;;8.60;7.00;;;;;;;24.02;74.40;97944.98;1803319;77;21243;-61
2022/06/30 05:35:43;;;;;;;8.90;6.65;;;;;;;24.02;74.40;97944.98;1783823;80;20863;-63
2022/06/30 05:38:16;;;;;;;10.18;6.50;;;;;;;24.13;74.56;97947.81;1784169;80;20884;-65
2022/06/30 05:40:45;;;;;;;9.80;7.58;;;;;;;24.22;73.92;97951.79;1784139;80;20848;-63
2022/06/30 05:43:13;;;;;;;15.55;6.80;;;;;;;24.29;73.56;97948.31;1784230;80;20939;-61
2022/06/30 05:45:41;;;;;;;9.33;7.03;;;;;;;24.38;73.46;97956.39;1783726;80;21233;-61
2022/06/30 05:48:08;;;;;;;16.30;7.20;;;;;;;24.48;73.32;97952.95;1784259;80;38369;-66
2022/06/30 05:50:35;;;;;;;9.90;6.45;;;;;;;24.58;72.96;97945.17;1784359;80;20864;-62
2022/06/30 05:53:01;;;;;;;7.97;5.90;;;;;;;24.67;72.30;97946.97;1828548;77;20952;-61
2022/06/30 05:55:28;;;;;;;11.25;6.87;;;;;;;24.74;71.85;97947.80;1817908;77;20910;-61
2022/06/30 05:58:04;;;;;;;10.58;6.50;;;;;;;24.82;71.69;97941.81;1815844;79;21223;-63
2022/06/30 06:00:30;;;;;;;10.28;7.25;;;;;;;24.88;71.21;97938.89;1816515;78;20911;-62
2022/06/30 06:02:56;;;;;;;7.92;6.05;;;;;;;24.96;71.24;97940.50;1815997;79;20899;-62
2022/06/30 06:05:23;;;;;;;6.72;6.10;;;;;;;25.06;70.93;97950.11;1816371;79;20875;-63
2022/06/30 06:07:50;;;;;;;13.38;5.92;;;;;;;25.14;70.72;97947.61;1816419;78;20950;-61
2022/06/30 06:10:17;;;;;;;11.33;6.30;;;;;;;25.24;70.57;97944.70;1816259;79;21868;-65
2022/06/30 06:12:44;;;;;;;9.23;5.92;;;;;;;25.34;70.27;97943.96;1816429;78;21370;-63
2022/06/30 06:15:11;;;;;;;9.15;5.83;;;;;;;25.45;69.86;97953.59;1815952;79;20966;-63
2022/06/30 06:17:44;;;;;;;10.15;6.40;;;;;;;25.55;69.95;97952.84;1812326;78;21470;-62
2022/06/30 06:20:12;;;;;;;11.43;6.60;;;;;;;25.65;69.43;97950.10;1804646;79;20903;-61
2022/06/30 06:22:40;;;;;;;8.38;6.37;;;;;;;25.74;69.21;97950.50;1812837;79;21091;-63
2022/06/30 06:25:07;;;;;;;10.68;6.20;;;;;;;25.82;69.10;97947.18;1774197;79;20911;-62
2022/06/30 06:27:34;;;;;;;8.93;6.17;;;;;;;25.89;69.03;97943.06;1734272;82;21476;-63
2022/06/30 06:30:03;;;;;;;13.75;7.08;;;;;;;25.99;68.67;97944.25;1820371;78;21426;-63
2022/06/30 06:32:30;;;;;;;8.25;6.03;;;;;;;26.08;68.96;97947.38;1820392;78;20923;-63
2022/06/30 06:34:58;;;;;;;12.50;6.00;;;;;;;26.18;68.69;97946.62;1820412;78;21225;-63
2022/06/30 06:37:25;;;;;;;9.78;5.67;;;;;;;26.30;67.28;97950.34;1820380;78;20973;-62
2022/06/30 06:39:51;;;;;;;11.97;5.47;;;;;;;26.40;67.16;97947.56;1839672;76;21043;-63
2022/06/30 06:42:17;;;;;;;9.63;5.72;;;;;;;26.55;67.13;97951.07;1832729;75;21561;-65
2022/06/30 06:44:44;;;;;;;11.97;5.78;;;;;;;26.67;67.45;97953.41;1830136;77;20872;-63
2022/06/30 06:47:10;;;;;;;8.60;5.42;;;;;;;26.77;66.30;97954.00;1840156;77;21362;-63
2022/06/30 06:49:37;;;;;;;6.60;5.92;;;;;;;26.85;65.26;97951.41;1841137;76;21596;-63
2022/06/30 06:52:05;;;;;;;8.15;5.92;;;;;;;26.97;65.86;97957.84;1840817;76;20979;-64
2022/06/30 06:54:31;;;;;;;10.48;6.03;;;;;;;27.06;66.20;97954.06;1863574;76;21461;-63
2022/06/30 06:56:57;;;;;;;7.15;5.65;;;;;;;27.16;65.31;97946.95;1857241;76;20913;-63
2022/06/30 06:59:24;;;;;;;9.98;5.70;;;;;;;27.26;65.01;97952.22;1848860;76;21205;-63
2022/06/30 07:01:51;;;;;;;8.65;5.58;;;;;;;27.34;63.42;97951.01;1809163;78;20954;-63
2022/06/30 07:04:17;;;;;;;8.60;5.42;;;;;;;27.41;63.06;97951.00;1773304;81;21035;-63
2022/06/30 07:06:45;;;;;;;6.42;5.30;;;;;;;27.48;63.55;97958.62;1800927;79;21101;-63
2022/06/30 07:09:14;;;;;;;7.40;5.42;;;;;;;27.54;64.25;97957.59;1801028;79;21455;-64
2022/06/30 07:11:40;;;;;;;8.00;5.50;;;;;;;27.61;62.18;97956.16;1803416;79;21100;-64
2022/06/30 07:14:08;;;;;;;6.70;5.70;;;;;;;27.67;62.61;97953.19;1793782;78;20946;-66
2022/06/30 07:16:35;;;;;;;8.03;5.22;;;;;;;27.74;63.44;97959.44;1797304;79;21023;-64
2022/06/30 07:19:02;;;;;;;6.47;4.53;;;;;;;27.81;63.17;97957.22;1807180;78;21050;-64
2022/06/30 07:21:29;;;;;;;7.50;4.55;;;;;;;27.89;60.66;97960.71;1796750;79;21075;-63
2022/06/30 07:23:56;;;;;;;6.40;4.55;;;;;;;27.95;59.44;97957.70;1793010;80;21100;-63
2022/06/30 07:26:22;;;;;;;4.33;3.90;;;;;;;28.03;58.48;97957.26;1792959;79;20939;-65
2022/06/30 07:28:49;;;;;;;4.30;3.87;;;;;;;28.08;57.49;97959.58;1790674;79;20986;-64
2022/06/30 07:31:15;;;;;;;6.25;3.80;;;;;;;28.15;56.38;97960.89;1812549;77;21019;-63
2022/06/30 07:33:45;;;;;;;5.70;4.20;;;;;;;28.23;56.83;97961.03;1829266;77;20856;-63
2022/06/30 07:36:12;;;;;;;6.00;4.10;;;;;;;28.31;55.73;97959.77;1784115;79;21064;-63
2022/06/30 07:38:40;;;;;;;8.75;4.17;;;;;;;28.38;54.99;97954.19;1818199;77;20882;-64
2022/06/30 07:41:06;;;;;;;4.45;3.50;;;;;;;28.47;55.07;97960.62;1813547;79;20917;-63
2022/06/30 07:43:33;;;;;;;6.95;4.00;;;;;;;28.58;54.17;97956.36;1813445;78;21430;-62
2022/06/30 07:46:00;;;;;;;5.17;4.10;;;;;;;28.66;53.34;97957.89;1775218;80;21000;-67
2022/06/30 07:48:26;;;;;;;5.08;3.80;;;;;;;28.74;54.42;97956.61;1781715;80;21073;-63
2022/06/30 07:50:52;;;;;;;6.85;4.22;;;;;;;28.81;54.30;97951.80;1800980;79;20909;-62
2022/06/30 07:53:19;;;;;;;5.47;4.10;;;;;;;28.88;54.07;97955.06;1801132;79;20892;-63
2022/06/30 07:55:46;;;;;;;7.37;3.75;;;;;;;28.93;54.62;97951.27;1781798;80;20935;-63
2022/06/30 07:58:13;;;;;;;8.00;3.62;;;;;;;29.03;53.76;97956.47;1781728;80;20900;-65
2022/06/30 08:00:39;;;;;;;4.10;3.00;;;;;;;29.11;50.86;97954.58;1810949;77;21223;-54
2022/06/30 08:03:06;;;;;;;5.53;3.50;;;;;;;29.16;49.33;97953.34;1801542;79;21018;-64
2022/06/30 08:05:33;;;;;;;4.28;3.20;;;;;;;29.23;49.44;97957.42;1791399;79;20980;-65
2022/06/30 08:07:59;;;;;;;4.65;3.40;;;;;;;29.31;49.94;97960.28;1800051;79;20923;-67
2022/06/30 08:10:26;;;;;;;4.95;3.30;;;;;;;29.38;50.84;97960.19;1810475;77;20852;-65
2022/06/30 08:12:53;;;;;;;5.55;3.10;;;;;;;29.45;51.05;97953.19;1782262;79;21288;-64
2022/06/30 08:15:19;;;;;;;4.42;3.20;;;;;;;29.56;50.85;97955.81;1812043;79;20954;-65
2022/06/30 08:17:46;;;;;;;7.72;3.52;;;;;;;29.65;50.83;97958.20;1776405;80;20940;-63
2022/06/30 08:20:13;;;;;;;6.20;3.42;;;;;;;29.73;50.24;97956.91;1790877;79;20939;-65
2022/06/30 08:22:39;;;;;;;5.55;2.90;;;;;;;29.83;50.56;97964.88;1786926;80;20927;-64
2022/06/30 08:25:07;;;;;;;3.85;2.98;;;;;;;29.89;47.74;97952.78;1793634;78;21203;-63
2022/06/30 08:27:34;;;;;;;5.83;2.87;;;;;;;29.96;47.17;97960.95;1804211;78;21003;-65
2022/06/30 08:30:01;;;;;;;6.03;3.00;;;;;;;30.01;46.93;97960.45;1789356;80;21016;-64
2022/06/30 08:32:28;;;;;;;5.67;2.83;;;;;;;30.07;46.10;97959.58;1811343;78;21030;-64
2022/06/30 08:34:54;;;;;;;8.38;2.72;;;;;;;30.13;46.34;97960.64;1772393;78;20934;-64
2022/06/30 08:37:21;;;;;;;8.08;2.90;;;;;;;30.20;45.48;97958.36;1815477;78;21093;-64
2022/06/30 08:42:32;;;;;;;7.17;2.90;;;;;;;30.28;44.47;97959.22;1819069;78;21387;-65
2022/06/30 08:45:41;;;;;;;3.62;2.60;;;;;;;30.35;44.42;97956.95;1806825;77;21015;-63
2022/06/30 08:47:30;;;;;;;6.35;2.70;;;;;;;30.41;43.25;97964.33;1781192;79;21027;-59
2022/06/30 08:49:57;;;;;;;5.35;2.80;;;;;;;30.46;43.26;97971.36;1772662;79;21503;-61
2022/06/30 08:52:25;;;;;;;6.00;2.98;;;;;;;30.51;44.20;97970.08;1797577;78;20960;-66
2022/06/30 08:54:51;;;;;;;5.67;2.77;;;;;;;30.59;43.27;97973.70;1795290;78;20926;-64
2022/06/30 08:57:18;;;;;;;5.35;2.50;;;;;;;30.69;43.13;97971.94;1821601;78;20974;-65
2022/06/30 08:59:45;;;;;;;7.00;2.90;;;;;;;30.77;41.83;97968.61;1833458;78;21026;-65
2022/06/30 09:02:11;;;;;;;5.35;2.77;;;;;;;30.87;42.29;97970.40;1816328;78;21092;-65
2022/06/30 09:04:38;;;;;;;5.40;2.80;;;;;;;30.95;42.11;97974.59;1811523;78;20928;-66
2022/06/30 09:07:05;;;;;;;6.67;3.10;;;;;;;31.01;42.32;97970.74;1821609;78;20938;-65
2022/06/30 09:09:31;;;;;;;5.25;2.90;;;;;;;31.04;43.97;97972.04;1802982;78;21421;-64
2022/06/30 09:11:58;;;;;;;4.25;3.25;;;;;;;31.09;42.69;97973.55;1789756;80;21045;-62
2022/06/30 09:14:40;;;;;;;5.70;2.92;;;;;;;31.15;42.54;97971.05;1803621;78;21378;-64
2022/06/30 09:17:10;;;;;;;4.10;3.22;;;;;;;31.19;42.65;97977.28;1822231;78;20883;-61
2022/06/30 09:19:40;;;;;;;4.62;2.95;;;;;;;31.23;42.57;97975.23;1817718;77;20828;-61
2022/06/30 09:22:12;;;;;;;4.78;2.83;;;;;;;31.29;42.29;97981.82;1749184;79;20879;-63
2022/06/30 09:24:39;;;;;;;5.70;2.87;;;;;;;31.33;40.22;97980.53;1816515;79;21402;-63
2022/06/30 09:27:19;;;;;;;5.10;2.95;;;;;;;31.34;41.61;97981.32;1812672;78;21346;-62
2022/06/30 09:29:49;;;;;;;7.10;2.92;;;;;;;31.39;43.13;97975.29;1792534;79;20899;-65
2022/06/30 09:32:16;;;;;;;6.55;2.77;;;;;;;31.44;43.40;97976.98;1784353;80;21362;-63
2022/06/30 09:34:43;;;;;;;4.67;2.72;;;;;;;31.51;42.72;97981.58;1810887;79;20954;-64
2022/06/30 09:37:23;;;;;;;4.78;3.17;;;;;;;31.57;42.18;97982.62;1812564;79;20921;-62
2022/06/30 09:39:57;;;;;;;4.33;2.60;;;;;;;31.63;41.53;97979.53;1814520;78;21113;-62
2022/06/30 09:42:43;;;;;;;6.97;3.20;;;;;;;31.64;42.43;97975.55;1812231;78;20931;-65
2022/06/30 09:45:14;;;;;;;5.42;2.90;;;;;;;31.70;42.56;97977.98;1809743;78;21096;-64
2022/06/30 09:47:55;;;;;;;6.95;3.00;;;;;;;31.73;40.91;97982.64;1810045;78;20977;-63
2022/06/30 09:50:21;;;;;;;5.47;2.90;;;;;;;31.74;39.43;97977.30;1808204;77;21017;-62
2022/06/30 09:53:11;;;;;;;8.83;2.90;;;;;;;31.73;41.60;97979.88;1817109;78;21224;-64
2022/06/30 09:55:46;;;;;;;6.35;3.17;;;;;;;31.76;40.83;97980.41;1812026;78;21552;-61
2022/06/30 09:58:34;;;;;;;5.03;3.08;;;;;;;31.82;41.90;97975.94;1807868;79;20931;-60
2022/06/30 10:01:01;;;;;;;6.62;3.00;;;;;;;31.92;41.81;97971.33;1809684;79;20966;-62
2022/06/30 10:03:28;;;;;;;5.22;3.30;;;;;;;32.01;42.32;97975.09;1810153;79;20982;-62
2022/06/30 10:06:16;;;;;;;5.25;3.27;;;;;;;32.10;41.93;97972.52;1815771;79;21651;-62
2022/06/30 10:08:42;;;;;;;8.70;3.40;;;;;;;32.17;41.03;97972.94;1807072;78;21043;-62
2022/06/30 10:11:09;;;;;;;7.80;3.37;;;;;;;32.21;40.21;97976.39;1809572;78;20943;-62
2022/06/30 10:13:38;;;;;;;6.40;3.17;;;;;;;32.21;40.51;97973.02;1808133;77;20985;-61
2022/06/30 10:16:06;;;;;;;4.83;3.10;;;;;;;32.28;40.06;97974.83;1807848;78;21147;-63
2022/06/30 10:18:39;;;;;;;6.72;2.92;;;;;;;32.36;40.34;97972.81;1806086;79;21068;-62
2022/06/30 10:21:05;;;;;;;4.80;3.05;;;;;;;32.47;40.77;97970.39;1761758;79;21495;-58
2022/06/30 10:23:33;;;;;;;6.97;3.47;;;;;;;32.55;40.25;97964.88;1854295;76;20992;-61
2022/06/30 10:26:00;;;;;;;9.03;3.25;;;;;;;32.64;39.19;97958.87;1848880;76;20975;-62
2022/06/30 10:28:27;;;;;;;6.72;2.60;;;;;;;32.67;38.48;97962.77;1857458;76;21022;-60
2022/06/30 10:31:21;;;;;;;6.87;2.95;;;;;;;32.69;38.71;97963.89;1860048;76;21773;-61
2022/06/30 10:34:15;;;;;;;4.10;2.80;;;;;;;32.74;36.73;97968.13;1846282;76;21046;-63
2022/06/30 10:37:04;;;;;;;5.42;2.60;;;;;;;32.74;37.22;97961.19;1848473;76;21074;-63
2022/06/30 10:39:52;;;;;;;16.65;2.55;;;;;;;32.82;38.12;97961.15;1850619;76;21101;-61
2022/06/30 10:42:55;;;;;;;5.47;2.20;;;;;;;32.89;36.43;97958.18;1845054;76;21025;-61
2022/06/30 10:45:34;;;;;;;4.08;2.40;;;;;;;32.90;36.53;97966.08;1850968;76;21171;-61
2022/06/30 10:48:08;;;;;;;7.12;3.08;;;;;;;32.93;36.05;97963.01;1839279;76;21068;-62
2022/06/30 10:50:43;;;;;;;6.58;2.65;;;;;;;33.00;35.96;97961.42;1853319;76;21045;-61
2022/06/30 10:53:40;;;;;;;5.62;2.40;;;;;;;33.05;36.83;97961.70;1865087;76;20996;-62
2022/06/30 10:56:07;;;;;;;4.90;2.45;;;;;;;33.15;37.25;97959.05;1848443;76;21466;-62
2022/06/30 10:58:33;;;;;;;6.62;2.72;;;;;;;33.28;36.91;97957.85;1852076;76;21232;-61
2022/06/30 11:01:03;;;;;;;8.68;2.85;;;;;;;33.44;36.06;97959.18;1842218;76;20990;-60
2022/06/30 11:03:37;;;;;;;5.15;2.40;;;;;;;33.58;35.22;97956.00;1859550;76;21042;-59
2022/06/30 11:06:06;;;;;;;4.53;2.70;;;;;;;33.70;34.80;97957.22;1797954;78;21120;-61
2022/06/30 11:08:48;;;;;;;10.40;3.00;;;;;;;33.77;33.58;97949.27;1802753;78;21124;-61
2022/06/30 11:11:28;;;;;;;4.30;2.52;;;;;;;33.85;35.38;97958.95;1762420;80;21105;-61
2022/06/30 11:14:07;;;;;;;8.33;3.15;;;;;;;33.92;34.77;97961.50;1774407;79;21524;-61
2022/06/30 11:16:37;;;;;;;6.67;2.98;;;;;;;33.89;35.63;97965.94;1777894;79;20952;-62
2022/06/30 11:19:05;;;;;;;3.70;2.75;;;;;;;33.73;34.46;97969.59;1798135;77;21531;-62
2022/06/30 11:21:32;;;;;;;4.30;2.70;;;;;;;33.38;34.24;97959.55;1783326;78;21086;-61
2022/06/30 11:29:34;;;;;;;5.87;3.02;;;;;;;33.09;36.70;97951.91;1693578;81;20990;-61
2022/06/30 11:32:01;;;;;;;3.85;2.95;;;;;;;33.38;35.76;97956.77;1745970;80;21072;-62
2022/06/30 11:34:28;;;;;;;5.90;2.98;;;;;;;33.60;35.34;97954.94;1743726;80;21473;-67
2022/06/30 11:36:55;;;;;;;4.17;2.90;;;;;;;33.86;34.61;97954.92;1739584;81;21951;-61
2022/06/30 11:39:21;;;;;;;4.70;2.90;;;;;;;34.12;33.92;97954.48;1702296;82;21549;-59
2022/06/30 11:41:56;;;;;;;6.90;3.58;;;;;;;34.35;33.72;97956.09;1703995;82;21070;-63
2022/06/30 11:44:38;;;;;;;6.75;3.00;;;;;;;34.55;33.94;97958.02;1699940;82;21779;-63
2022/06/30 11:47:07;;;;;;;4.37;2.95;;;;;;;34.73;32.86;97954.00;1660398;83;21091;-63
2022/06/30 11:49:55;;;;;;;3.52;2.52;;;;;;;34.85;31.93;97955.95;1740204;80;21055;-63
2022/06/30 11:52:38;;;;;;;4.25;2.62;;;;;;;34.91;33.35;97943.00;1741068;81;21053;-63
2022/06/30 11:55:17;;;;;;;5.67;2.85;;;;;;;35.10;33.56;97937.58;1736685;80;20918;-62
2022/06/30 11:57:46;;;;;;;3.80;2.80;;;;;;;35.29;32.75;97937.23;1722092;83;21072;-61